バンクーバー の空港の天気 - METARとTAF

バンクーバー国際空港 ( CYVR / YVR ) - カナダ ブリティッシュコロンビア州バンクーバー
飛行場実況気象(Metar)
観測時間01/22 20:00 PST (01/23 04:00 UTC)
風向・風速東南東 3m/s
視程10km以上
天気現象
少しの雲 雲底高度 460m
全天の4割程度の雲 雲底高度 1580m
全天の4割程度の雲 雲底高度 2680m
全天の8割程度の雲 雲底高度 3960m
気温5℃
湿度87%
気圧1024.5hPa
METARCYVR 230400Z 11006KT 20SM FEW015 SCT052 SCT088 BKN130 BKN250 05/03 A3025 RMK SC1SC2AC1AC2CS1 SLP245
過去の天気等 Google飛行場航空写真 Wunderground天気予報

過去48時間のMETAR

飛行場予報(TAF)
発表時間: 1/22 18:38 PST (1/23 02:38 UTC)
予報対象時間: 22日19時 PST ~ 23日22時 PST
風向・風速東南東 3m/s
視程10km以上
全天の8割程度の雲 雲底高度 1,520m
23日0時 PST から
風向・風速東 5m/s
視程10km以上
天気現象弱いしゅう雨
全天の4割程度の雲 雲底高度 460m
全天の8割程度の雲 雲底高度 910m
23日7時 PST から
風向・風速東 8m/s 瞬間風速 13m/s
視程10km以上
天気現象弱い雨
全天を覆う雲 雲底高度 460m
23日7時 PST ~ 23日16時 PST に一時的に
視程6,440m
天気現象弱い雨 もや
TAF CYVR 230238Z 2303/2406 12005KT P6SM BKN050
FM230800 10010KT P6SM -SHRA SCT015 BKN030
FM231500 10015G25KT P6SM -RA OVC015
TEMPO 2315/2324 4SM -RA BR RMK NXT FCST BY 230600Z